Time;durP1;ratioP1;P1;durP2;ratioP2;P2;SDS_P1;SDS_P2;PMS_P1;PMS_P2;Temp;Humidity;BMP_temperature;BMP_pressure;BME280_temperature;BME280_humidity;BME280_pressure;Samples;Min_cycle;Max_cycle;Signal;HPM_P1;HPM_P2
2021/05/21 00:02:10;;;;;;;4.22;2.90;;;;;;;36.08;34.53;160687.13;1727406;82;21246;-83
2021/05/21 00:04:43;;;;;;;4.12;2.60;;;;;;;36.07;34.54;160684.44;1733288;82;21172;-84
2021/05/21 00:07:15;;;;;;;3.30;2.50;;;;;;;36.00;34.59;160665.67;1720093;82;21170;-83
2021/05/21 00:09:49;;;;;;;4.58;2.60;;;;;;;35.99;34.61;160663.05;1743856;82;21191;-83
2021/05/21 00:12:22;;;;;;;6.42;2.80;;;;;;;36.02;34.58;160671.03;1754744;82;21183;-83
2021/05/21 00:14:55;;;;;;;5.85;3.02;;;;;;;36.03;34.56;160673.72;1748530;82;21687;-83
2021/05/21 00:17:28;;;;;;;4.40;2.90;;;;;;;35.96;34.60;160656.27;1746516;82;21176;-83
2021/05/21 00:20:01;;;;;;;3.27;2.50;;;;;;;35.96;34.60;160654.95;1730966;82;21306;-84
2021/05/21 00:22:35;;;;;;;3.50;2.55;;;;;;;35.97;34.56;160657.62;1726926;82;21243;-83
2021/05/21 00:25:09;;;;;;;6.55;4.15;;;;;;;35.88;34.63;160634.88;1726236;82;21321;-83
2021/05/21 00:27:43;;;;;;;3.50;2.62;;;;;;;35.80;34.75;160612.13;1720479;82;21176;-84
2021/05/21 00:30:16;;;;;;;5.42;2.80;;;;;;;35.79;34.75;160610.81;1735260;82;21689;-84
2021/05/21 00:32:48;;;;;;;4.65;2.80;;;;;;;35.81;34.74;160614.81;1727619;82;21324;-84
2021/05/21 00:35:21;;;;;;;4.80;2.72;;;;;;;35.84;34.71;160622.84;1737489;82;21847;-84
2021/05/21 00:37:54;;;;;;;4.58;3.00;;;;;;;35.80;34.73;160613.50;1725741;82;21488;-83
2021/05/21 00:40:28;;;;;;;4.28;3.25;;;;;;;35.83;34.75;160620.17;1681657;85;21337;-84
2021/05/21 00:43:01;;;;;;;5.20;2.98;;;;;;;35.83;34.71;160620.17;1735748;82;21729;-83
2021/05/21 00:45:33;;;;;;;4.28;3.02;;;;;;;35.76;34.77;160602.78;1750295;82;21424;-83
2021/05/21 00:48:07;;;;;;;5.65;3.10;;;;;;;35.82;34.70;160618.80;1745956;82;21349;-84
2021/05/21 00:50:39;;;;;;;3.87;3.15;;;;;;;35.79;34.73;160610.81;1731303;82;21185;-84
2021/05/21 00:53:13;;;;;;;4.53;2.92;;;;;;;35.84;34.67;160622.84;1740322;82;21699;-83
2021/05/21 00:55:46;;;;;;;6.05;3.12;;;;;;;35.83;34.67;160620.17;1720171;83;21228;-84
2021/05/21 00:58:19;;;;;;;5.40;3.10;;;;;;;35.79;34.70;160609.45;1732853;82;21185;-84
2021/05/21 01:00:55;;;;;;;3.35;2.60;;;;;;;35.79;34.69;160610.81;1744581;82;21361;-84
2021/05/21 01:03:28;;;;;;;4.97;2.65;;;;;;;35.75;34.73;160598.78;1727283;82;21243;-83
2021/05/21 01:06:01;;;;;;;4.42;3.12;;;;;;;35.74;34.75;160596.09;1720170;83;21749;-83
2021/05/21 01:08:36;;;;;;;6.58;3.60;;;;;;;35.80;34.65;160612.13;1738039;82;21306;-85
2021/05/21 01:11:10;;;;;;;4.12;2.55;;;;;;;35.77;34.65;160605.45;1684602;84;21258;-83
2021/05/21 01:13:44;;;;;;;4.87;3.20;;;;;;;35.77;34.63;160605.45;1684672;84;21245;-83
2021/05/21 01:16:17;;;;;;;3.58;2.65;;;;;;;35.77;34.63;160604.09;1684473;85;21679;-84
2021/05/21 01:19:47;;;;;;;4.12;2.85;;;;;;;35.82;34.54;160617.50;1673810;85;21445;-84
2021/05/21 01:22:20;;;;;;;;;;;;;;;35.79;34.53;160609.45;1739065;82;21223;-83
2021/05/21 01:24:54;;;;;;;4.90;2.67;;;;;;;35.69;34.60;160582.70;1742054;82;20283;-83
2021/05/21 01:27:27;;;;;;;4.20;2.70;;;;;;;35.61;34.70;160562.62;1737509;82;21187;-83
2021/05/21 01:29:59;;;;;;;5.20;3.33;;;;;;;35.65;34.66;160572.03;1725813;82;21350;-84
2021/05/21 01:32:32;;;;;;;3.98;2.40;;;;;;;35.62;34.66;160564.00;1714758;82;21187;-83
2021/05/21 01:35:07;;;;;;;7.28;2.90;;;;;;;35.62;34.64;160564.00;1726231;82;21746;-83
2021/05/21 01:37:45;;;;;;;4.95;2.70;;;;;;;35.63;34.61;160566.69;1715125;82;21782;-83
2021/05/21 01:40:18;;;;;;;7.33;2.80;;;;;;;35.59;34.65;160557.28;1713505;82;21363;-85
2021/05/21 01:42:50;;;;;;;10.40;2.65;;;;;;;35.55;34.66;160546.61;1696490;84;21163;-84
2021/05/21 01:45:23;;;;;;;2.98;2.05;;;;;;;35.53;34.64;160541.25;1707231;83;21182;-85
2021/05/21 01:47:56;;;;;;;3.98;2.50;;;;;;;35.54;34.64;160542.56;1703166;84;21237;-82
2021/05/21 01:50:29;;;;;;;6.15;2.70;;;;;;;35.50;34.63;160531.84;1692209;83;21292;-81
2021/05/21 01:53:02;;;;;;;5.30;2.65;;;;;;;35.56;34.57;160547.92;1697944;84;21215;-81
2021/05/21 01:55:35;;;;;;;5.62;3.12;;;;;;;35.54;34.57;160542.56;1706933;83;21754;-83
2021/05/21 01:58:07;;;;;;;3.02;2.42;;;;;;;35.47;34.61;160523.81;1686859;83;21333;-83
2021/05/21 02:00:39;;;;;;;5.08;2.52;;;;;;;35.45;34.58;160519.81;1702982;83;21294;-82
2021/05/21 02:03:12;;;;;;;3.50;2.17;;;;;;;35.45;34.55;160519.81;1687826;84;21240;-83
2021/05/21 02:05:45;;;;;;;4.25;2.40;;;;;;;35.39;34.59;160502.42;1678264;85;21217;-82
2021/05/21 02:08:17;;;;;;;2.70;2.10;;;;;;;35.40;34.55;160505.11;1654136;85;21869;-82
2021/05/21 02:10:50;;;;;;;4.40;2.92;;;;;;;35.41;34.52;160507.78;1675287;84;21365;-82
2021/05/21 02:13:24;;;;;;;4.45;2.85;;;;;;;35.37;34.51;160497.06;1702025;83;21710;-83
2021/05/21 02:15:56;;;;;;;3.15;2.27;;;;;;;35.37;34.47;160497.06;1714551;82;21348;-83
2021/05/21 02:18:29;;;;;;;6.60;3.05;;;;;;;35.36;34.48;160495.70;1736836;82;21266;-82
2021/05/21 02:21:02;;;;;;;4.53;2.50;;;;;;;35.30;34.45;160479.69;1718839;82;21193;-82
2021/05/21 02:23:35;;;;;;;4.35;2.47;;;;;;;35.31;34.45;160481.00;1737602;82;21726;-82
2021/05/21 02:26:09;;;;;;;3.33;1.98;;;;;;;35.28;34.43;160474.33;1723076;81;21269;-82
2021/05/21 02:28:42;;;;;;;2.62;2.08;;;;;;;35.27;34.40;160471.66;1750556;81;21195;-82
2021/05/21 02:31:14;;;;;;;5.58;2.40;;;;;;;35.19;34.46;160448.91;1717025;82;21381;-82
2021/05/21 02:33:47;;;;;;;2.40;2.20;;;;;;;35.17;34.46;160443.59;1759238;81;21194;-84
2021/05/21 02:36:20;;;;;;;3.02;2.22;;;;;;;35.16;34.43;160440.92;1746898;81;21320;-83
2021/05/21 02:38:52;;;;;;;3.15;2.30;;;;;;;35.13;34.45;160434.19;1750206;82;21317;-83
2021/05/21 02:41:25;;;;;;;2.62;1.90;;;;;;;35.08;34.53;160418.17;1754296;82;21313;-83
2021/05/21 02:43:57;;;;;;;3.25;2.30;;;;;;;35.05;34.53;160410.09;1747051;82;22488;-83
2021/05/21 02:46:30;;;;;;;4.70;2.77;;;;;;;35.02;34.54;160403.42;1741801;82;21245;-83
2021/05/21 02:49:04;;;;;;;3.33;2.33;;;;;;;35.01;34.56;160400.75;1743234;81;21922;-83
2021/05/21 02:51:36;;;;;;;3.40;2.10;;;;;;;34.98;34.55;160392.70;1758143;81;21352;-83
2021/05/21 02:54:08;;;;;;;2.75;2.33;;;;;;;34.96;34.58;160387.34;1754401;82;21828;-83
2021/05/21 02:56:42;;;;;;;2.65;2.12;;;;;;;34.98;34.54;160392.70;1754245;81;22089;-83
2021/05/21 02:59:15;;;;;;;4.08;1.80;;;;;;;34.94;34.58;160382.05;1744507;81;21329;-83
2021/05/21 03:01:47;;;;;;;3.37;2.22;;;;;;;34.92;34.61;160376.69;1740512;81;21183;-84
2021/05/21 03:04:20;;;;;;;3.10;1.90;;;;;;;34.97;34.58;160388.72;1755553;81;21226;-84
2021/05/21 03:06:53;;;;;;;4.03;2.60;;;;;;;35.02;34.52;160403.42;1681867;85;21698;-84
2021/05/21 03:09:25;;;;;;;3.10;2.10;;;;;;;34.98;34.57;160391.39;1748843;81;21218;-83
2021/05/21 03:11:58;;;;;;;6.03;2.20;;;;;;;34.96;34.57;160387.34;1751941;82;21353;-83
2021/05/21 03:14:31;;;;;;;3.90;2.10;;;;;;;34.99;34.57;160395.39;1733694;83;21187;-82
2021/05/21 03:17:04;;;;;;;3.45;2.20;;;;;;;34.94;34.61;160380.69;1742988;82;21815;-82
2021/05/21 03:19:36;;;;;;;3.98;2.20;;;;;;;34.98;34.58;160392.70;1746282;81;21809;-85
2021/05/21 03:22:10;;;;;;;3.65;2.15;;;;;;;34.97;34.59;160390.03;1743282;82;21296;-86
2021/05/21 03:24:43;;;;;;;3.40;2.30;;;;;;;34.98;34.60;160391.39;1754290;82;21224;-85
2021/05/21 03:27:16;;;;;;;3.22;2.02;;;;;;;34.95;34.62;160384.72;1748283;81;21439;-85
2021/05/21 03:29:48;;;;;;;3.50;2.15;;;;;;;34.97;34.62;160390.03;1741022;82;21173;-85
2021/05/21 03:32:21;;;;;;;3.47;2.05;;;;;;;34.88;34.70;160365.97;1744954;82;21195;-85
2021/05/21 03:34:54;;;;;;;1.98;1.82;;;;;;;34.93;34.67;160378.00;1743415;82;21713;-84
2021/05/21 03:37:27;;;;;;;2.25;1.95;;;;;;;35.00;34.65;160396.75;1754992;82;21179;-85
2021/05/21 03:39:59;;;;;;;4.40;1.90;;;;;;;34.99;34.66;160395.39;1754451;82;21160;-86
2021/05/21 03:42:32;;;;;;;3.17;2.65;;;;;;;34.96;34.69;160387.34;1733352;82;21219;-86
2021/05/21 03:45:08;;;;;;;3.15;2.27;;;;;;;34.99;34.69;160394.06;1746947;82;21178;-85
2021/05/21 03:47:41;;;;;;;3.37;1.90;;;;;;;34.98;34.70;160392.70;1748151;81;21186;-84
2021/05/21 03:50:22;;;;;;;3.10;1.90;;;;;;;35.01;34.69;160400.75;1748890;80;21714;-85
2021/05/21 03:53:00;;;;;;;2.70;1.82;;;;;;;34.96;34.75;160387.34;1725975;81;21373;-84
2021/05/21 03:55:41;;;;;;;2.40;1.90;;;;;;;35.13;34.60;160434.19;1727234;82;21677;-84
2021/05/21 03:58:15;;;;;;;4.03;1.87;;;;;;;35.16;34.55;160442.23;1739185;81;21167;-83
2021/05/21 04:00:51;;;;;;;2.95;2.08;;;;;;;35.22;34.53;160458.31;1729503;81;21346;-84
2021/05/21 04:03:25;;;;;;;3.62;2.25;;;;;;;35.11;34.61;160427.53;1730429;81;21337;-86
2021/05/21 04:05:59;;;;;;;2.25;1.75;;;;;;;35.08;34.71;160418.17;1728143;80;21401;-84
2021/05/21 04:08:35;;;;;;;2.95;1.95;;;;;;;35.08;34.71;160419.48;1734372;80;21235;-85
2021/05/21 04:11:08;;;;;;;2.90;2.25;;;;;;;35.06;34.77;160414.19;1733365;80;21258;-86
2021/05/21 04:13:47;;;;;;;4.17;1.90;;;;;;;35.12;34.72;160428.89;1726695;80;21203;-87
2021/05/21 04:16:25;;;;;;;3.87;1.80;;;;;;;35.10;34.75;160423.53;1712530;80;21231;-85
2021/05/21 04:19:00;;;;;;;4.35;2.30;;;;;;;35.12;34.74;160430.20;1734073;80;21320;-84
2021/05/21 04:21:35;;;;;;;3.40;1.80;;;;;;;35.14;34.74;160435.56;1744822;81;21235;-84
2021/05/21 04:24:09;;;;;;;2.77;1.45;;;;;;;35.11;34.79;160427.53;1750412;82;21230;-84
2021/05/21 04:26:42;;;;;;;2.80;1.67;;;;;;;36.03;34.13;160675.09;1755037;82;21254;-83
2021/05/21 04:29:14;;;;;;;3.02;1.67;;;;;;;36.72;33.20;160861.12;1751807;81;21203;-83
2021/05/21 04:31:47;;;;;;;3.65;1.80;;;;;;;36.68;33.19;160850.44;1729722;82;21173;-83
2021/05/21 04:34:21;;;;;;;2.98;1.95;;;;;;;35.60;34.04;160559.95;1727793;82;22366;-84
2021/05/21 04:36:53;;;;;;;5.37;2.00;;;;;;;35.29;34.50;160475.69;1746585;82;21318;-83
2021/05/21 04:39:27;;;;;;;4.47;2.12;;;;;;;35.29;34.57;160475.69;1730514;82;21222;-83
2021/05/21 04:42:00;;;;;;;3.75;1.75;;;;;;;35.26;34.65;160468.97;1658944;85;21353;-82
2021/05/21 04:44:33;;;;;;;5.15;2.33;;;;;;;35.31;34.66;160481.00;1696608;82;21317;-84
2021/05/21 04:47:07;;;;;;;4.33;1.77;;;;;;;35.33;34.65;160486.36;1724378;81;21935;-85
2021/05/21 04:49:40;;;;;;;4.67;1.85;;;;;;;35.36;34.60;160494.39;1726768;81;21329;-85
2021/05/21 04:52:14;;;;;;;4.30;1.95;;;;;;;35.36;34.63;160494.39;1728694;81;21246;-85
2021/05/21 04:54:47;;;;;;;3.42;1.62;;;;;;;35.38;34.60;160499.75;1732252;81;21194;-85
2021/05/21 04:57:22;;;;;;;2.17;1.50;;;;;;;35.39;34.59;160503.75;1726343;81;21242;-83
2021/05/21 04:59:56;;;;;;;3.72;1.75;;;;;;;35.38;34.60;160501.06;1725341;81;21238;-83
2021/05/21 05:02:30;;;;;;;2.50;1.47;;;;;;;35.44;34.56;160515.78;1728732;81;21230;-82
2021/05/21 05:05:04;;;;;;;3.58;1.60;;;;;;;35.46;34.54;160522.50;1729977;81;21934;-82
2021/05/21 05:07:38;;;;;;;3.22;1.57;;;;;;;35.46;34.54;160522.50;1729490;81;21278;-83
2021/05/21 05:10:13;;;;;;;1.67;1.20;;;;;;;35.52;34.46;160538.56;1729475;81;21269;-84
2021/05/21 05:12:47;;;;;;;2.15;1.55;;;;;;;35.54;34.51;160542.56;1735316;81;21892;-81
2021/05/21 05:15:21;;;;;;;2.30;1.30;;;;;;;35.50;34.57;160533.16;1728733;81;21203;-83
2021/05/21 05:18:00;;;;;;;2.42;1.45;;;;;;;35.54;34.54;160542.56;1725491;81;21743;-81
2021/05/21 05:20:41;;;;;;;3.20;1.17;;;;;;;35.58;34.49;160554.64;1726615;81;21191;-83
2021/05/21 05:23:21;;;;;;;2.83;1.37;;;;;;;35.60;34.46;160558.64;1725731;81;21203;-83
2021/05/21 05:25:57;;;;;;;2.52;1.20;;;;;;;35.61;34.43;160561.31;1707151;81;21215;-82
2021/05/21 05:28:34;;;;;;;2.40;1.27;;;;;;;35.58;34.47;160554.64;1726994;81;21183;-84
2021/05/21 05:31:09;;;;;;;3.00;1.20;;;;;;;35.60;34.40;160559.95;1734314;80;21218;-83
2021/05/21 05:33:45;;;;;;;2.40;1.12;;;;;;;35.71;34.30;160588.06;1729319;80;21313;-82
2021/05/21 05:36:22;;;;;;;2.80;1.15;;;;;;;35.71;34.28;160588.06;1741616;81;21368;-80
2021/05/21 05:39:05;;;;;;;2.10;1.02;;;;;;;35.77;34.26;160604.09;1727685;82;21321;-81
2021/05/21 05:41:44;;;;;;;5.47;0.93;;;;;;;35.86;34.14;160628.20;1736297;80;21386;-82
2021/05/21 05:44:21;;;;;;;1.57;1.05;;;;;;;35.91;34.07;160641.56;1740168;80;21183;-81
2021/05/21 05:46:56;;;;;;;2.67;1.20;;;;;;;35.93;34.14;160646.92;1727779;80;21344;-81
2021/05/21 05:49:33;;;;;;;1.17;0.98;;;;;;;35.89;34.13;160636.19;1745389;80;21326;-80
2021/05/21 05:52:09;;;;;;;2.02;1.10;;;;;;;35.93;34.08;160646.92;1732827;80;21318;-80
2021/05/21 05:54:45;;;;;;;1.37;1.10;;;;;;;35.99;33.94;160663.05;1733895;80;21243;-80
2021/05/21 05:57:21;;;;;;;1.45;1.07;;;;;;;36.01;33.90;160669.72;1728112;82;21384;-79
2021/05/21 05:59:55;;;;;;;1.00;0.88;;;;;;;36.06;33.81;160681.75;1726743;81;22038;-81
2021/05/21 06:02:30;;;;;;;1.45;1.12;;;;;;;36.01;33.83;160669.72;1732082;82;21385;-80
2021/05/21 06:05:06;;;;;;;1.27;0.80;;;;;;;36.29;33.60;160744.63;1730342;82;21294;-79
2021/05/21 06:07:42;;;;;;;1.40;0.95;;;;;;;36.12;33.67;160700.47;1728174;82;21368;-81
2021/05/21 06:10:20;;;;;;;1.15;0.90;;;;;;;36.44;33.23;160786.19;1733197;82;21159;-82
2021/05/21 06:13:03;;;;;;;0.75;0.68;;;;;;;36.17;33.56;160713.87;1731389;80;21258;-82
2021/05/21 06:15:45;;;;;;;0.80;0.80;;;;;;;36.12;33.56;160700.47;1729162;80;21191;-82
2021/05/21 06:18:24;;;;;;;1.12;0.90;;;;;;;36.17;33.54;160712.50;1727549;80;21345;-81
2021/05/21 06:21:04;;;;;;;0.60;0.60;;;;;;;36.21;33.48;160724.59;1735819;80;21737;-79
2021/05/21 06:23:58;;;;;;;1.82;1.05;;;;;;;36.24;33.37;160732.58;1731885;80;21373;-80
2021/05/21 06:26:41;;;;;;;1.45;0.70;;;;;;;36.27;33.32;160740.63;1732816;80;21178;-81
2021/05/21 06:29:24;;;;;;;0.65;0.65;;;;;;;36.31;33.20;160751.34;1732829;80;21433;-78
2021/05/21 06:32:08;;;;;;;0.80;0.62;;;;;;;36.34;33.12;160759.34;1728904;80;21226;-80
2021/05/21 06:34:40;;;;;;;0.95;0.60;;;;;;;36.41;33.10;160776.73;1732341;80;21368;-80
2021/05/21 06:37:23;;;;;;;1.17;0.78;;;;;;;36.50;33.02;160802.23;1726320;81;21239;-82
2021/05/21 06:40:02;;;;;;;1.67;1.02;;;;;;;36.52;32.90;160806.23;1735586;80;21338;-84
2021/05/21 06:42:38;;;;;;;4.03;1.15;;;;;;;36.60;32.95;160829.00;1735996;80;21389;-82
2021/05/21 06:45:16;;;;;;;2.58;1.02;;;;;;;36.61;33.02;160831.67;1738604;80;21355;-81
2021/05/21 06:47:54;;;;;;;3.60;1.00;;;;;;;36.72;33.04;160859.80;1737359;80;21325;-78
2021/05/21 06:50:31;;;;;;;5.55;1.22;;;;;;;36.81;33.06;160883.89;1744524;80;21454;-80
2021/05/21 06:53:04;;;;;;;4.83;1.45;;;;;;;36.85;32.98;160894.61;1736761;82;21301;-80
2021/05/21 06:55:38;;;;;;;5.80;1.20;;;;;;;36.95;32.99;160922.75;1731746;80;21424;-81
2021/05/21 06:58:10;;;;;;;2.02;1.07;;;;;;;36.99;33.03;160933.47;1726336;80;21326;-81
2021/05/21 07:00:43;;;;;;;3.27;1.27;;;;;;;37.03;33.00;160945.52;1732674;80;21195;-79
2021/05/21 07:03:18;;;;;;;4.70;1.50;;;;;;;37.13;32.96;160970.97;1727532;80;21918;-76
2021/05/21 07:05:51;;;;;;;4.58;1.50;;;;;;;37.22;32.95;160996.38;1725837;80;21892;-78
2021/05/21 07:08:33;;;;;;;7.50;1.80;;;;;;;37.29;32.95;161015.14;1743803;80;21847;-81
2021/05/21 07:11:13;;;;;;;3.30;1.30;;;;;;;37.54;32.81;161082.16;1749713;80;21216;-79
2021/05/21 07:13:48;;;;;;;6.47;1.52;;;;;;;37.81;32.52;161153.19;1730600;81;21345;-82
2021/05/21 07:16:29;;;;;;;5.35;1.50;;;;;;;37.78;32.49;161145.09;1729902;80;21381;-83
2021/05/21 07:19:06;;;;;;;4.70;1.37;;;;;;;37.82;32.36;161155.88;1739076;80;21175;-82
2021/05/21 07:21:39;;;;;;;4.30;1.60;;;;;;;37.72;32.49;161129.03;1734855;80;21348;-80
2021/05/21 07:24:11;;;;;;;3.12;1.30;;;;;;;37.75;32.42;161137.03;1740756;80;22699;-80
2021/05/21 07:26:44;;;;;;;4.35;1.15;;;;;;;38.10;32.10;161232.22;1726003;80;21432;-81
2021/05/21 07:29:18;;;;;;;4.97;1.25;;;;;;;38.13;32.09;161240.28;1738010;80;21324;-82
2021/05/21 07:31:51;;;;;;;4.08;0.95;;;;;;;39.01;31.44;161477.53;1726623;80;21227;-82
2021/05/21 07:34:23;;;;;;;2.35;1.20;;;;;;;38.89;31.18;161445.36;1730143;81;21274;-82
2021/05/21 07:36:57;;;;;;;2.42;1.10;;;;;;;38.38;31.68;161308.64;1723656;81;21655;-82
2021/05/21 07:39:31;;;;;;;1.42;0.93;;;;;;;38.00;32.19;161206.75;1724618;81;21682;-81
2021/05/21 07:42:03;;;;;;;1.80;0.95;;;;;;;38.35;32.21;161300.59;1726567;81;21266;-80
2021/05/21 07:44:35;;;;;;;1.40;0.85;;;;;;;39.43;30.91;161590.23;1724445;81;21904;-81
2021/05/21 07:47:08;;;;;;;1.42;0.90;;;;;;;38.71;31.33;161397.13;1726599;82;21186;-82
2021/05/21 07:49:43;;;;;;;7.28;1.17;;;;;;;39.46;30.91;161598.30;1753680;81;21348;-84
2021/05/21 07:52:16;;;;;;;1.95;0.82;;;;;;;39.11;30.72;161505.77;1727477;81;21734;-84
2021/05/21 07:54:49;;;;;;;3.17;0.85;;;;;;;38.56;31.10;161356.86;1726262;81;21274;-80
2021/05/21 07:57:24;;;;;;;2.60;0.90;;;;;;;38.87;30.51;161440.05;1730353;81;21258;-84
2021/05/21 07:59:57;;;;;;;2.45;1.00;;;;;;;39.29;30.48;161552.69;1727118;81;21206;-86
2021/05/21 08:02:29;;;;;;;0.85;0.70;;;;;;;38.38;30.93;161308.64;1728250;81;21705;-81
2021/05/21 08:05:04;;;;;;;0.57;0.57;;;;;;;38.79;30.54;161418.56;1708211;82;21219;-83
2021/05/21 08:07:37;;;;;;;2.58;0.55;;;;;;;38.56;30.62;161356.86;1726632;81;21222;-82
2021/05/21 08:10:11;;;;;;;0.78;0.47;;;;;;;39.51;29.93;161613.09;1727921;81;21184;-82
2021/05/21 08:12:45;;;;;;;1.65;0.50;;;;;;;39.18;29.85;161523.19;1728452;81;21701;-83
2021/05/21 08:15:18;;;;;;;2.40;0.60;;;;;;;38.87;29.68;161438.67;1721898;81;21187;-82
2021/05/21 08:17:51;;;;;;;1.95;0.57;;;;;;;38.85;29.51;161434.67;1729621;81;21175;-81
2021/05/21 08:20:25;;;;;;;1.00;0.70;;;;;;;39.16;29.06;161519.19;1731661;81;21202;-82
2021/05/21 08:22:59;;;;;;;1.67;0.60;;;;;;;38.88;29.26;161441.36;1725975;81;21333;-82
2021/05/21 08:25:32;;;;;;;1.82;0.78;;;;;;;38.70;29.49;161393.12;1725434;81;21189;-81
2021/05/21 08:28:05;;;;;;;0.60;0.60;;;;;;;38.69;29.17;161391.77;1724787;81;21297;-83
2021/05/21 08:30:39;;;;;;;2.05;0.88;;;;;;;38.70;29.10;161393.12;1726890;81;21210;-82
2021/05/21 08:33:14;;;;;;;1.57;0.72;;;;;;;38.74;29.18;161403.81;1732884;80;21233;-81
2021/05/21 08:35:48;;;;;;;1.27;0.80;;;;;;;38.80;29.37;161419.94;1732618;80;21918;-81
2021/05/21 08:38:22;;;;;;;0.78;0.78;;;;;;;38.83;29.30;161429.31;1731161;80;21317;-80
2021/05/21 08:40:55;;;;;;;0.78;0.78;;;;;;;40.30;28.58;161826.38;1736086;80;21183;-84
2021/05/21 08:43:31;;;;;;;5.30;1.00;;;;;;;39.26;29.28;161544.63;1730411;80;21278;-81
2021/05/21 08:46:04;;;;;;;3.45;0.90;;;;;;;39.23;29.46;161537.94;1711949;80;21197;-82
2021/05/21 08:48:36;;;;;;;2.85;1.07;;;;;;;40.73;28.69;161940.48;1723094;82;21392;-83
2021/05/21 08:51:10;;;;;;;5.62;0.70;;;;;;;39.96;29.11;161733.84;1725635;81;21191;-81
2021/05/21 08:53:45;;;;;;;2.17;0.85;;;;;;;41.33;28.08;162102.98;1737169;80;21759;-82
2021/05/21 08:56:18;;;;;;;4.62;2.17;;;;;;;41.33;27.84;162104.34;1728878;80;21227;-82
2021/05/21 08:58:51;;;;;;;0.90;0.65;;;;;;;41.22;27.56;162074.81;1733754;81;21195;-84
2021/05/21 09:01:26;;;;;;;1.07;0.60;;;;;;;41.31;26.94;162097.66;1731211;80;21413;-82
2021/05/21 09:04:02;;;;;;;2.00;1.02;;;;;;;41.95;26.68;162272.28;1734706;80;21227;-84
2021/05/21 09:06:37;;;;;;;5.37;0.80;;;;;;;41.11;27.47;162043.88;1736557;80;21250;-80
2021/05/21 09:09:11;;;;;;;4.65;0.90;;;;;;;41.90;26.84;162258.78;1686844;82;21828;-83
2021/05/21 09:11:46;;;;;;;2.12;1.20;;;;;;;41.71;26.97;162206.45;1736341;80;21179;-81
2021/05/21 09:14:21;;;;;;;4.35;0.90;;;;;;;41.92;26.94;162264.16;1732342;80;21183;-82
2021/05/21 09:16:55;;;;;;;7.53;1.00;;;;;;;42.27;26.91;162356.91;1736188;80;21298;-80
2021/05/21 09:19:29;;;;;;;1.10;0.80;;;;;;;41.94;26.94;162269.55;1730380;80;21258;-81
2021/05/21 09:22:07;;;;;;;0.85;0.80;;;;;;;41.44;27.21;162132.52;1732884;80;21805;-82
2021/05/21 09:24:43;;;;;;;1.50;1.10;;;;;;;40.80;27.57;161960.67;1733806;80;21210;-81
2021/05/21 09:27:18;;;;;;;5.72;1.10;;;;;;;40.49;27.96;161876.06;1732888;80;21884;-81
2021/05/21 09:29:56;;;;;;;1.90;0.88;;;;;;;40.62;27.70;161912.34;1730068;80;21932;-81
2021/05/21 09:32:35;;;;;;;1.15;0.90;;;;;;;40.30;27.90;161825.06;1734155;80;21401;-81
2021/05/21 09:35:15;;;;;;;1.22;1.00;;;;;;;40.77;27.71;161951.28;1723964;82;21333;-83
2021/05/21 09:37:52;;;;;;;5.92;2.35;;;;;;;41.30;27.29;162096.28;1725019;82;21267;-82
2021/05/21 09:40:28;;;;;;;4.97;1.02;;;;;;;41.83;26.92;162238.69;1722672;82;21207;-82
2021/05/21 09:43:06;;;;;;;3.00;0.90;;;;;;;41.20;27.53;162069.44;1722126;82;21778;-82
2021/05/21 09:45:46;;;;;;;2.10;0.98;;;;;;;40.75;28.08;161947.23;1731598;82;21231;-83
2021/05/21 09:48:16;;;;;;;1.35;0.82;;;;;;;41.63;27.60;162184.94;1734185;81;21895;-83
2021/05/21 09:50:50;;;;;;;1.05;0.80;;;;;;;40.70;28.21;161932.41;1741958;82;21365;-83
2021/05/21 09:53:26;;;;;;;1.52;0.80;;;;;;;40.93;28.36;161995.58;1742747;82;21187;-81
2021/05/21 09:56:06;;;;;;;3.77;0.90;;;;;;;40.92;28.33;161994.20;1742690;82;21175;-83
2021/05/21 09:58:45;;;;;;;0.70;0.70;;;;;;;41.92;27.54;162262.84;1739907;82;21234;-82
2021/05/21 10:01:23;;;;;;;1.57;0.90;;;;;;;40.88;27.63;161982.13;1728348;82;21167;-83
2021/05/21 10:03:58;;;;;;;1.55;0.82;;;;;;;40.90;27.37;161987.50;1728732;82;21389;-81
2021/05/21 10:06:30;;;;;;;2.08;0.80;;;;;;;41.61;26.99;162179.56;1743433;82;21302;-81
2021/05/21 10:09:02;;;;;;;2.72;0.80;;;;;;;40.87;27.08;161979.44;1711150;83;21360;-82
2021/05/21 10:11:34;;;;;;;1.12;0.78;;;;;;;40.68;27.42;161928.41;1750295;81;21393;-82
2021/05/21 10:14:06;;;;;;;1.15;0.70;;;;;;;40.59;27.73;161904.28;1713165;83;21318;-82
2021/05/21 10:16:39;;;;;;;1.30;0.70;;;;;;;40.62;27.63;161912.34;1684576;81;21430;-80
2021/05/21 10:19:11;;;;;;;2.87;0.70;;;;;;;40.70;26.91;161933.78;1713624;83;21412;-81
2021/05/21 10:21:43;;;;;;;0.68;0.68;;;;;;;40.70;26.62;161932.41;1713224;83;21309;-83
2021/05/21 10:24:18;;;;;;;3.20;0.68;;;;;;;40.94;26.28;161999.58;1750314;81;21180;-83
2021/05/21 10:26:55;;;;;;;0.82;0.70;;;;;;;40.82;26.32;161964.69;1750478;82;21227;-83
2021/05/21 10:29:35;;;;;;;1.35;0.70;;;;;;;41.45;25.92;162136.56;1750457;82;21235;-82
2021/05/21 10:32:15;;;;;;;0.57;0.57;;;;;;;42.08;25.18;162307.20;1750303;82;21432;-83
2021/05/21 10:34:50;;;;;;;2.80;0.70;;;;;;;42.06;25.17;162300.52;1750222;82;21314;-82
2021/05/21 10:37:42;;;;;;;0.98;0.68;;;;;;;41.98;25.18;162278.98;1750334;82;21325;-81
2021/05/21 10:40:32;;;;;;;1.47;0.82;;;;;;;41.41;25.49;162124.50;1750402;82;21397;-82
2021/05/21 10:43:25;;;;;;;1.20;0.62;;;;;;;41.16;25.84;162058.69;1750350;82;21835;-82
2021/05/21 10:46:08;;;;;;;0.95;0.53;;;;;;;41.15;25.84;162054.69;1732167;82;21219;-81
2021/05/21 10:48:55;;;;;;;4.50;1.30;;;;;;;41.22;25.88;162073.45;1669636;84;21186;-81
2021/05/21 10:51:29;;;;;;;1.60;0.90;;;;;;;41.20;26.08;162068.13;1671712;85;21416;-81
2021/05/21 10:54:35;;;;;;;1.25;0.60;;;;;;;41.34;26.14;162105.67;1684324;84;21329;-81
2021/05/21 10:57:20;;;;;;;1.02;0.70;;;;;;;41.32;26.22;162100.34;1685647;84;21686;-81
2021/05/21 10:59:57;;;;;;;1.57;0.68;;;;;;;41.36;25.97;162111.05;1682769;85;21762;-81
2021/05/21 11:02:48;;;;;;;1.75;0.75;;;;;;;41.48;25.67;162143.27;1672197;85;21362;-81
2021/05/21 11:05:32;;;;;;;1.57;0.70;;;;;;;41.42;25.92;162127.19;1721201;83;21230;-81
2021/05/21 11:08:08;;;;;;;0.50;0.50;;;;;;;41.46;25.71;162139.25;1720772;83;21330;-81
2021/05/21 11:10:43;;;;;;;1.62;0.72;;;;;;;41.48;25.86;162144.64;1720529;83;21187;-81
2021/05/21 11:13:18;;;;;;;1.80;0.82;;;;;;;41.58;25.81;162170.17;1722672;82;21193;-81
2021/05/21 11:15:55;;;;;;;1.30;0.82;;;;;;;41.50;25.51;162149.97;1733024;82;21178;-80
2021/05/21 11:18:31;;;;;;;1.52;0.60;;;;;;;41.58;25.48;162170.17;1725782;82;21189;-81
2021/05/21 11:21:09;;;;;;;0.95;0.57;;;;;;;41.71;25.39;162205.09;1750251;81;21243;-80
2021/05/21 11:23:48;;;;;;;0.50;0.50;;;;;;;41.65;25.31;162189.00;1731419;82;21339;-81
2021/05/21 11:26:26;;;;;;;0.95;0.70;;;;;;;41.64;25.23;162187.63;1720375;83;21704;-81
2021/05/21 11:29:03;;;;;;;2.02;0.60;;;;;;;41.66;25.02;162193.00;1704712;83;21324;-77
2021/05/21 11:31:37;;;;;;;0.65;0.65;;;;;;;41.76;25.01;162218.53;1712576;83;22431;-76
2021/05/21 11:34:12;;;;;;;0.60;0.50;;;;;;;41.80;24.88;162229.23;1709146;83;21280;-77
2021/05/21 11:36:45;;;;;;;1.67;0.80;;;;;;;41.81;24.75;162233.30;1704991;83;21308;-77
2021/05/21 11:39:17;;;;;;;0.70;0.47;;;;;;;41.85;24.54;162242.69;1709790;84;21380;-76
2021/05/21 11:41:53;;;;;;;0.60;0.60;;;;;;;41.84;24.53;162240.00;1728855;82;21357;-78
2021/05/21 11:44:27;;;;;;;0.75;0.60;;;;;;;41.79;24.34;162226.55;1746531;81;21206;-78
2021/05/21 11:47:05;;;;;;;0.85;0.47;;;;;;;41.88;24.41;162250.77;1751375;82;21325;-77
2021/05/21 11:49:38;;;;;;;0.80;0.60;;;;;;;43.79;22.99;162766.97;1751129;82;21324;-78
2021/05/21 11:52:11;;;;;;;0.50;0.50;;;;;;;43.99;22.67;162823.48;1751979;81;21745;-81
2021/05/21 11:54:44;;;;;;;0.93;0.70;;;;;;;44.14;22.64;162863.83;1758243;81;21215;-80
2021/05/21 11:57:20;;;;;;;0.50;0.50;;;;;;;42.42;23.59;162397.28;1758410;81;21317;-81
2021/05/21 11:59:57;;;;;;;0.60;0.60;;;;;;;42.39;24.02;162389.20;1758134;81;21211;-80
2021/05/21 12:02:30;;;;;;;2.05;0.68;;;;;;;42.80;23.85;162499.41;1758220;81;21242;-80